Time;durP1;ratioP1;P1;durP2;ratioP2;P2;SDS_P1;SDS_P2;PMS_P1;PMS_P2;Temp;Humidity;BMP_temperature;BMP_pressure;BME280_temperature;BME280_humidity;BME280_pressure;Samples;Min_cycle;Max_cycle;Signal;HPM_P1;HPM_P2
2022/08/24 00:00:45;;;;;;;14.52;9.55;;;22.70;60.10;;;;;;9185932;19;20368;-67
2022/08/24 00:03:50;;;;;;;27.17;10.82;;;22.70;60.20;;;;;;9186850;19;20014;-67
2022/08/24 00:07:02;;;;;;;21.85;10.00;;;22.70;60.40;;;;;;9186449;19;20456;-68
2022/08/24 00:10:12;;;;;;;15.50;9.73;;;22.60;60.40;;;;;;9182242;19;20015;-68
2022/08/24 00:13:17;;;;;;;20.38;9.85;;;22.60;60.50;;;;;;9185869;19;20039;-68
2022/08/24 00:16:23;;;;;;;17.67;9.38;;;22.60;60.60;;;;;;9184007;19;20014;-68
2022/08/24 00:19:29;;;;;;;16.80;10.05;;;22.50;60.60;;;;;;9183794;19;20022;-68
2022/08/24 00:22:37;;;;;;;20.23;9.82;;;22.50;60.70;;;;;;9186250;19;20031;-68
2022/08/24 00:25:43;;;;;;;16.80;10.18;;;22.50;60.80;;;;;;9185242;19;20010;-68
2022/08/24 00:28:48;;;;;;;15.80;9.73;;;22.40;60.80;;;;;;9181675;19;20476;-67
2022/08/24 00:31:53;;;;;;;16.48;10.25;;;22.40;60.90;;;;;;9186920;19;20018;-67
2022/08/24 00:34:59;;;;;;;20.80;10.45;;;22.30;60.90;;;;;;9181373;19;20018;-69
2022/08/24 00:38:07;;;;;;;16.42;10.57;;;22.30;61.00;;;;;;9183570;19;20029;-67
2022/08/24 00:41:16;;;;;;;13.95;9.23;;;22.30;61.20;;;;;;9181342;19;20007;-68
2022/08/24 00:44:22;;;;;;;17.20;10.25;;;22.20;61.30;;;;;;9185539;19;20372;-68
2022/08/24 00:47:32;;;;;;;20.35;10.73;;;22.20;61.30;;;;;;9184723;19;20019;-69
2022/08/24 00:50:40;;;;;;;16.45;10.20;;;22.10;61.50;;;;;;9185420;19;20015;-69
2022/08/24 00:53:53;;;;;;;16.42;10.60;;;22.10;61.60;;;;;;9184630;19;20014;-67
2022/08/24 00:57:02;;;;;;;20.60;11.60;;;22.00;61.70;;;;;;9182502;19;20017;-69
2022/08/24 01:00:13;;;;;;;18.15;11.25;;;22.00;61.70;;;;;;9183955;19;20014;-68
2022/08/24 01:03:19;;;;;;;26.90;12.32;;;21.90;61.80;;;;;;9184912;19;20014;-68
2022/08/24 01:06:24;;;;;;;18.15;11.48;;;21.90;61.90;;;;;;9181072;19;20465;-68
2022/08/24 01:09:31;;;;;;;20.30;11.63;;;21.80;61.90;;;;;;9182113;19;20015;-67
2022/08/24 01:12:39;;;;;;;17.02;12.20;;;21.80;62.00;;;;;;9182411;19;20018;-67
2022/08/24 01:15:47;;;;;;;16.00;11.52;;;21.70;62.10;;;;;;9183041;19;20038;-67
2022/08/24 01:18:50;;;;;;;20.90;10.88;;;21.70;62.20;;;;;;9182095;19;20022;-67
2022/08/24 01:22:06;;;;;;;22.00;11.48;;;21.70;62.20;;;;;;9181470;19;20018;-68
2022/08/24 01:25:14;;;;;;;19.15;11.88;;;21.60;62.40;;;;;;9181429;19;20021;-68
2022/08/24 01:28:21;;;;;;;23.65;11.57;;;21.60;62.40;;;;;;9179324;19;20020;-68
2022/08/24 01:31:32;;;;;;;19.15;11.75;;;21.50;62.50;;;;;;9180801;19;20033;-68
2022/08/24 01:34:37;;;;;;;14.55;10.90;;;21.50;62.50;;;;;;9182527;19;20104;-68
2022/08/24 01:37:42;;;;;;;19.25;12.45;;;21.50;62.60;;;;;;9181653;19;20030;-68
2022/08/24 01:40:55;;;;;;;23.40;12.73;;;21.40;62.70;;;;;;9180674;19;20029;-68
2022/08/24 01:44:00;;;;;;;18.08;12.18;;;21.40;62.90;;;;;;9180667;19;20085;-68
2022/08/24 01:47:08;;;;;;;16.95;11.13;;;21.30;62.90;;;;;;9178713;19;20022;-68
2022/08/24 01:50:14;;;;;;;18.33;11.70;;;21.30;63.10;;;;;;9180763;19;20010;-70
2022/08/24 01:53:19;;;;;;;17.35;11.90;;;21.20;63.00;;;;;;9181799;19;20208;-68
2022/08/24 01:56:27;;;;;;;21.33;12.40;;;21.20;63.10;;;;;;9180072;19;20018;-69
2022/08/24 01:59:34;;;;;;;23.10;12.75;;;21.20;63.20;;;;;;9180471;19;20011;-67
2022/08/24 02:02:40;;;;;;;20.13;11.82;;;21.10;63.20;;;;;;9179717;19;20019;-69
2022/08/24 02:05:47;;;;;;;18.33;11.77;;;21.10;63.30;;;;;;9180131;19;20018;-69
2022/08/24 02:08:52;;;;;;;15.63;10.65;;;21.10;63.40;;;;;;9179570;19;20364;-67
2022/08/24 02:12:00;;;;;;;17.42;11.68;;;21.00;63.50;;;;;;9179829;19;20010;-68
2022/08/24 02:15:13;;;;;;;17.85;11.18;;;21.00;63.60;;;;;;9181469;19;20040;-68
2022/08/24 02:18:18;;;;;;;15.88;11.70;;;20.90;63.50;;;;;;9176852;19;20019;-68
2022/08/24 02:21:23;;;;;;;18.27;12.82;;;20.90;63.60;;;;;;9179490;19;20013;-68
2022/08/24 02:24:29;;;;;;;24.15;12.13;;;20.90;63.70;;;;;;9179443;19;20040;-68
2022/08/24 02:27:36;;;;;;;19.98;12.57;;;20.90;63.70;;;;;;9177205;19;20017;-68
2022/08/24 02:30:42;;;;;;;20.40;13.45;;;20.80;63.90;;;;;;9178884;19;20026;-68
2022/08/24 02:33:47;;;;;;;23.90;13.52;;;20.80;63.90;;;;;;9179797;19;20026;-68
2022/08/24 02:36:53;;;;;;;20.33;12.55;;;20.80;63.90;;;;;;9180408;19;20021;-67
2022/08/24 02:39:58;;;;;;;21.85;12.95;;;20.70;64.00;;;;;;9177851;19;20014;-68
2022/08/24 02:43:07;;;;;;;21.27;13.18;;;20.70;64.10;;;;;;9178268;19;20047;-68
2022/08/24 02:46:19;;;;;;;19.77;13.93;;;20.60;64.20;;;;;;9178160;19;20007;-68
2022/08/24 02:49:24;;;;;;;22.85;13.60;;;20.60;64.40;;;;;;9178713;19;20025;-68
2022/08/24 02:52:30;;;;;;;17.83;13.95;;;20.60;64.30;;;;;;9177773;19;20006;-68
2022/08/24 02:55:35;;;;;;;21.23;14.23;;;20.50;64.40;;;;;;9180614;19;20126;-68
2022/08/24 02:58:43;;;;;;;22.63;15.18;;;20.50;64.50;;;;;;9174343;19;20022;-67
2022/08/24 03:01:48;;;;;;;28.13;15.80;;;20.50;64.70;;;;;;9178398;19;20487;-67
2022/08/24 03:04:55;;;;;;;21.85;14.48;;;20.40;64.60;;;;;;9178420;19;20021;-68
2022/08/24 03:08:01;;;;;;;19.98;13.48;;;20.40;64.80;;;;;;9177339;19;20466;-68
2022/08/24 03:11:10;;;;;;;22.23;14.27;;;20.40;64.90;;;;;;9177733;19;20011;-68
2022/08/24 03:14:18;;;;;;;20.80;13.13;;;20.40;65.00;;;;;;9180140;19;20017;-68
2022/08/24 03:17:23;;;;;;;20.08;13.85;;;20.30;65.00;;;;;;9176529;19;20007;-68
2022/08/24 03:20:28;;;;;;;19.13;13.30;;;20.30;65.10;;;;;;9177678;19;20015;-69
2022/08/24 03:23:35;;;;;;;24.25;13.27;;;20.30;65.10;;;;;;9177802;19;20014;-69
2022/08/24 03:26:40;;;;;;;17.30;11.98;;;20.20;65.10;;;;;;9173966;19;20289;-68
2022/08/24 03:29:51;;;;;;;24.33;13.45;;;20.20;65.20;;;;;;9179524;19;20021;-68
2022/08/24 03:32:58;;;;;;;17.00;12.43;;;20.20;65.30;;;;;;9177143;19;20042;-68
2022/08/24 03:36:04;;;;;;;24.05;13.77;;;20.10;65.30;;;;;;9176830;19;20025;-69
2022/08/24 03:39:09;;;;;;;18.15;12.48;;;20.10;65.30;;;;;;9175649;19;20056;-67
2022/08/24 03:42:15;;;;;;;18.00;12.75;;;20.10;65.30;;;;;;9177975;19;20011;-67
2022/08/24 03:45:24;;;;;;;18.88;13.38;;;20.10;65.40;;;;;;9178495;19;20010;-69
2022/08/24 03:48:30;;;;;;;20.67;12.73;;;20.00;65.50;;;;;;9177057;19;20541;-68
2022/08/24 03:51:35;;;;;;;19.85;12.73;;;20.00;65.40;;;;;;9177964;19;20094;-68
2022/08/24 03:54:41;;;;;;;16.33;12.70;;;20.00;65.50;;;;;;9175981;19;20018;-68
2022/08/24 03:57:47;;;;;;;20.45;13.48;;;19.90;65.60;;;;;;9175743;19;20519;-69
2022/08/24 04:00:55;;;;;;;21.27;13.20;;;19.90;65.60;;;;;;9177016;19;20078;-68
2022/08/24 04:04:00;;;;;;;21.70;12.75;;;19.90;65.70;;;;;;9174868;19;20452;-69
2022/08/24 04:07:10;;;;;;;21.98;14.32;;;19.90;65.70;;;;;;9175611;19;20022;-69
2022/08/24 04:10:15;;;;;;;22.02;14.88;;;19.80;65.70;;;;;;9178396;19;20010;-70
2022/08/24 04:13:20;;;;;;;23.77;15.70;;;19.80;65.80;;;;;;9184361;19;20101;-68
2022/08/24 04:16:29;;;;;;;26.33;15.43;;;19.80;65.90;;;;;;9184190;19;20375;-67
2022/08/24 04:19:56;;;;;;;18.17;14.48;;;19.70;66.00;;;;;;9184538;19;20007;-69
2022/08/24 04:23:13;;;;;;;21.80;14.77;;;19.70;66.00;;;;;;9184491;19;20015;-68
2022/08/24 04:26:20;;;;;;;20.90;16.00;;;19.70;66.00;;;;;;9186357;19;20018;-68
2022/08/24 04:29:47;;;;;;;19.02;14.23;;;19.70;66.10;;;;;;9184069;19;20431;-68
2022/08/24 04:32:54;;;;;;;22.77;15.32;;;19.60;66.10;;;;;;9183703;19;20424;-69
2022/08/24 04:36:01;;;;;;;21.27;14.23;;;19.60;66.30;;;;;;9183296;19;20017;-68
2022/08/24 04:39:09;;;;;;;22.73;15.10;;;19.60;66.30;;;;;;9180233;19;20014;-68
2022/08/24 04:42:33;;;;;;;23.55;15.00;;;19.60;66.40;;;;;;9185173;19;20047;-67
2022/08/24 04:45:40;;;;;;;26.63;15.57;;;19.60;66.40;;;;;;9184732;19;20020;-68
2022/08/24 04:48:50;;;;;;;24.13;15.70;;;19.50;66.50;;;;;;9181987;19;20022;-68
2022/08/24 04:51:55;;;;;;;21.83;15.60;;;19.50;66.60;;;;;;9181955;19;20014;-67
2022/08/24 04:55:00;;;;;;;25.77;16.33;;;19.50;66.60;;;;;;9184327;19;20021;-68
2022/08/24 04:58:05;;;;;;;23.20;15.68;;;19.40;66.60;;;;;;9181160;19;20081;-68
2022/08/24 05:01:11;;;;;;;27.70;17.35;;;19.40;66.70;;;;;;9179499;19;20030;-68
2022/08/24 05:04:20;;;;;;;22.77;15.93;;;19.40;66.80;;;;;;9179250;19;20026;-68
2022/08/24 05:07:25;;;;;;;30.08;17.92;;;19.40;67.00;;;;;;9177554;19;20025;-69
2022/08/24 05:10:30;;;;;;;21.50;17.48;;;19.40;67.00;;;;;;9173043;19;20014;-68
2022/08/24 05:13:38;;;;;;;26.27;18.33;;;19.40;67.10;;;;;;9177211;19;20041;-67
2022/08/24 05:16:43;;;;;;;27.95;17.13;;;19.40;67.10;;;;;;9176974;19;20015;-67
2022/08/24 05:20:00;;;;;;;27.05;17.35;;;19.30;67.20;;;;;;9173313;19;20014;-68
2022/08/24 05:23:06;;;;;;;25.55;17.45;;;19.30;67.30;;;;;;9176805;19;20021;-68
2022/08/24 05:26:15;;;;;;;23.92;18.25;;;19.30;67.30;;;;;;9175783;19;20022;-67
2022/08/24 05:29:22;;;;;;;27.63;17.55;;;19.30;67.50;;;;;;9180929;19;20026;-69
2022/08/24 05:32:28;;;;;;;26.52;19.17;;;19.30;67.60;;;;;;9182927;19;20017;-68
2022/08/24 05:35:38;;;;;;;26.95;18.38;;;19.30;67.60;;;;;;9181875;19;20014;-69
2022/08/24 05:38:48;;;;;;;24.27;18.60;;;19.30;67.80;;;;;;9182189;19;20459;-69
2022/08/24 05:41:53;;;;;;;25.35;18.83;;;19.40;67.80;;;;;;9181844;19;20011;-68
2022/08/24 05:45:02;;;;;;;30.60;19.70;;;19.40;67.90;;;;;;9180999;19;20019;-67
2022/08/24 05:48:07;;;;;;;29.45;19.45;;;19.40;68.00;;;;;;9183684;19;20026;-68
2022/08/24 05:51:38;;;;;;;27.55;18.05;;;19.40;68.10;;;;;;9182019;19;20488;-69
2022/08/24 05:54:45;;;;;;;28.15;19.67;;;19.40;68.10;;;;;;9184031;19;20015;-67
2022/08/24 05:57:52;;;;;;;23.38;18.98;;;19.40;68.20;;;;;;9180224;19;20014;-67
2022/08/24 06:01:00;;;;;;;24.65;19.13;;;19.50;68.40;;;;;;9180773;19;20037;-68
2022/08/24 06:04:07;;;;;;;28.65;19.27;;;19.50;68.40;;;;;;9182163;19;20361;-67
2022/08/24 06:07:15;;;;;;;31.65;20.55;;;19.50;68.50;;;;;;9182330;19;20110;-68
2022/08/24 06:10:25;;;;;;;42.80;25.23;;;19.60;68.70;;;;;;9180725;19;20025;-67
2022/08/24 06:13:41;;;;;;;36.90;22.02;;;19.70;68.70;;;;;;9179852;19;20031;-67
2022/08/24 06:16:49;;;;;;;41.97;22.75;;;19.80;68.80;;;;;;9180005;19;20021;-67
2022/08/24 06:19:54;;;;;;;39.80;25.00;;;19.90;69.00;;;;;;9178131;19;20026;-69
2022/08/24 06:23:02;;;;;;;41.10;28.00;;;20.00;69.00;;;;;;9179282;19;20011;-69
2022/08/24 06:29:36;;;;;;;48.47;31.95;;;20.30;69.20;;;;;;9181553;19;20023;-68
2022/08/24 06:33:01;;;;;;;55.28;35.78;;;20.40;69.30;;;;;;9180464;19;20007;-67
2022/08/24 06:36:19;;;;;;;55.78;37.83;;;20.60;69.30;;;;;;9179730;19;20041;-69
2022/08/24 06:39:29;;;;;;;49.67;38.42;;;20.80;69.40;;;;;;9179639;19;20019;-69
2022/08/24 06:42:35;;;;;;;56.78;38.63;;;21.00;69.60;;;;;;9177499;19;20022;-68
2022/08/24 06:45:53;;;;;;;59.45;39.08;;;21.10;69.40;;;;;;9177973;19;20014;-68
2022/08/24 06:49:04;;;;;;;64.68;40.80;;;21.30;69.40;;;;;;9178477;19;20633;-69
2022/08/24 06:52:12;;;;;;;53.28;39.00;;;21.50;69.50;;;;;;9178452;19;20104;-68
2022/08/24 06:55:20;;;;;;;57.92;40.08;;;21.70;69.40;;;;;;9178536;19;20029;-67
2022/08/24 06:58:27;;;;;;;48.95;37.08;;;22.00;69.60;;;;;;9177490;19;20029;-68
2022/08/24 07:01:33;;;;;;;53.00;35.92;;;22.20;69.50;;;;;;9178862;19;20014;-67
2022/08/24 07:04:39;;;;;;;50.45;36.53;;;22.30;69.40;;;;;;9178633;19;20111;-68
2022/08/24 07:08:03;;;;;;;61.95;37.40;;;22.60;69.40;;;;;;9180378;19;20014;-67
2022/08/24 07:11:13;;;;;;;51.17;33.30;;;22.80;69.30;;;;;;9178451;19;20086;-68
2022/08/24 07:14:20;;;;;;;49.10;32.88;;;23.00;69.20;;;;;;9174846;19;20014;-70
2022/08/24 07:17:26;;;;;;;47.00;32.28;;;23.30;69.10;;;;;;9165062;19;20048;-69
2022/08/24 07:20:31;;;;;;;47.72;32.05;;;23.50;68.90;;;;;;9169519;19;20029;-69
2022/08/24 07:23:45;;;;;;;51.73;31.00;;;23.70;68.80;;;;;;9171914;19;20018;-69
2022/08/24 07:26:54;;;;;;;42.65;29.98;;;24.00;68.60;;;;;;9168144;19;20050;-69
2022/08/24 07:29:59;;;;;;;44.60;28.58;;;24.20;68.40;;;;;;9174247;19;20452;-69
2022/08/24 07:33:24;;;;;;;39.30;29.48;;;24.40;68.20;;;;;;9174813;19;20042;-67
2022/08/24 07:36:30;;;;;;;62.50;26.15;;;24.60;67.90;;;;;;9177245;19;20024;-73
2022/08/24 07:39:36;;;;;;;41.55;24.95;;;24.80;67.70;;;;;;9174600;19;20022;-70
2022/08/24 07:42:48;;;;;;;41.45;23.20;;;25.00;67.50;;;;;;9176831;19;20104;-70
2022/08/24 07:45:54;;;;;;;49.60;24.90;;;25.20;67.30;;;;;;9179983;19;20102;-70
2022/08/24 07:48:59;;;;;;;43.78;23.20;;;25.40;67.10;;;;;;9186040;19;20022;-72
2022/08/24 07:52:16;;;;;;;27.27;19.48;;;25.50;66.70;;;;;;9185912;19;20010;-77
2022/08/24 07:55:22;;;;;;;32.38;20.83;;;25.70;66.60;;;;;;9184388;19;20360;-75
2022/08/24 07:58:30;;;;;;;29.52;19.27;;;25.80;66.30;;;;;;9185242;19;20367;-75
2022/08/24 08:01:35;;;;;;;39.30;21.40;;;26.00;66.00;;;;;;9186505;19;20337;-75
2022/08/24 08:04:41;;;;;;;26.70;18.35;;;26.20;65.80;;;;;;9186492;19;20019;-70
2022/08/24 08:07:46;;;;;;;34.83;19.70;;;26.30;65.50;;;;;;9186262;19;20018;-71
2022/08/24 08:10:56;;;;;;;24.23;14.63;;;26.50;65.20;;;;;;9183707;19;20086;-71
2022/08/24 08:14:04;;;;;;;22.63;12.30;;;26.60;65.10;;;;;;9187724;19;20014;-70
2022/08/24 08:17:09;;;;;;;16.02;10.63;;;26.80;65.00;;;;;;9184566;19;20097;-69
2022/08/24 08:20:14;;;;;;;13.20;9.02;;;26.90;64.60;;;;;;9185834;19;20024;-71
2022/08/24 08:26:56;;;;;;;25.65;7.85;;;27.20;64.00;;;;;;9174749;19;20026;-71
2022/08/24 08:30:11;;;;;;;23.48;7.40;;;27.40;63.60;;;;;;9179946;19;20506;-72
2022/08/24 08:33:16;;;;;;;19.27;8.05;;;27.60;63.20;;;;;;9184683;19;20018;-71
2022/08/24 08:36:21;;;;;;;12.13;6.93;;;27.70;62.80;;;;;;9179693;19;20022;-72
2022/08/24 08:39:28;;;;;;;14.55;6.82;;;27.90;62.60;;;;;;9174807;19;20019;-72
2022/08/24 08:43:00;;;;;;;17.92;6.68;;;28.00;62.30;;;;;;9176885;19;20011;-72
2022/08/24 08:46:25;;;;;;;12.73;5.95;;;28.20;61.90;;;;;;9177531;19;20018;-72
2022/08/24 08:50:14;;;;;;;20.30;6.45;;;28.40;61.50;;;;;;9175953;19;20018;-71
2022/08/24 08:53:47;;;;;;;14.32;4.93;;;28.60;61.20;;;;;;9179955;19;20657;-67
2022/08/24 08:57:17;;;;;;;14.05;6.47;;;28.80;61.30;;;;;;9180983;19;20017;-62
2022/08/24 09:00:26;;;;;;;11.18;4.88;;;29.00;60.70;;;;;;9181111;19;20018;-68
2022/08/24 09:04:00;;;;;;;8.85;4.20;;;29.20;60.70;;;;;;9183431;19;20022;-72
2022/08/24 09:07:32;;;;;;;10.35;4.00;;;29.50;60.30;;;;;;9183314;19;20050;-70
2022/08/24 09:10:54;;;;;;;10.38;3.47;;;29.70;60.10;;;;;;9183194;19;20015;-68
2022/08/24 09:14:28;;;;;;;7.82;3.33;;;29.90;60.00;;;;;;9182188;19;20459;-69
2022/08/24 09:17:52;;;;;;;7.80;3.20;;;30.10;59.60;;;;;;9184020;19;20104;-69
2022/08/24 09:21:24;;;;;;;8.40;3.80;;;30.30;59.40;;;;;;9180223;19;20022;-71
2022/08/24 09:24:51;;;;;;;6.70;3.17;;;30.50;58.90;;;;;;9182309;19;20014;-69
2022/08/24 09:28:17;;;;;;;8.07;3.00;;;30.70;58.50;;;;;;9178294;19;20039;-69
2022/08/24 09:31:47;;;;;;;5.20;2.58;;;30.90;58.50;;;;;;9180729;19;20028;-69
2022/08/24 09:35:01;;;;;;;9.45;3.10;;;31.20;58.20;;;;;;9183561;19;20014;-70
2022/08/24 09:38:24;;;;;;;5.97;2.75;;;31.30;57.90;;;;;;9183166;19;20099;-70
2022/08/24 09:42:04;;;;;;;4.93;2.70;;;31.50;57.40;;;;;;9180137;19;20011;-70
2022/08/24 09:45:32;;;;;;;11.88;2.85;;;31.70;57.10;;;;;;9182762;19;20011;-71
2022/08/24 09:49:04;;;;;;;6.60;2.53;;;31.90;56.90;;;;;;9182993;19;20022;-70
2022/08/24 09:52:33;;;;;;;7.72;1.90;;;32.10;56.60;;;;;;9182994;19;20019;-70
2022/08/24 09:56:02;;;;;;;5.20;1.45;;;32.20;56.30;;;;;;9182497;19;20025;-71
2022/08/24 09:59:22;;;;;;;4.25;1.50;;;32.40;56.00;;;;;;9182692;19;20007;-72
2022/08/24 10:02:54;;;;;;;4.05;1.50;;;32.60;55.90;;;;;;9180348;19;20022;-71
2022/08/24 10:06:17;;;;;;;9.10;1.58;;;32.70;55.40;;;;;;9181444;19;20006;-71
2022/08/24 10:09:54;;;;;;;4.90;1.30;;;32.90;55.10;;;;;;9180216;19;20479;-69
2022/08/24 10:13:16;;;;;;;1.67;1.05;;;33.00;54.90;;;;;;9181249;19;20366;-69
2022/08/24 10:16:31;;;;;;;2.72;1.00;;;33.20;54.70;;;;;;9181834;19;20652;-69
2022/08/24 10:19:54;;;;;;;4.50;1.40;;;33.40;54.50;;;;;;9181545;19;20013;-69
2022/08/24 10:23:11;;;;;;;2.33;1.40;;;33.50;54.00;;;;;;9181672;19;20014;-73
2022/08/24 10:26:24;;;;;;;3.08;1.13;;;33.60;53.80;;;;;;9181702;19;20022;-70
2022/08/24 10:29:55;;;;;;;5.50;1.27;;;33.80;53.60;;;;;;9181489;19;20495;-71
2022/08/24 10:33:11;;;;;;;4.60;1.77;;;33.90;53.10;;;;;;9180906;19;20510;-72
2022/08/24 10:36:28;;;;;;;1.70;1.00;;;34.00;53.00;;;;;;9180888;19;20022;-72
2022/08/24 10:40:04;;;;;;;4.20;1.20;;;34.20;52.80;;;;;;9179678;19;20022;-73
2022/08/24 10:43:42;;;;;;;3.22;1.40;;;34.30;52.50;;;;;;9178792;19;20037;-74
2022/08/24 10:46:59;;;;;;;2.55;1.20;;;34.40;52.20;;;;;;9179985;19;20013;-71
2022/08/24 10:50:38;;;;;;;3.28;1.40;;;34.50;52.10;;;;;;9178934;19;20550;-72
2022/08/24 10:53:49;;;;;;;5.63;1.23;;;34.60;51.80;;;;;;9178476;19;20511;-73
2022/08/24 10:57:01;;;;;;;6.63;1.60;;;34.70;51.70;;;;;;9180527;19;20011;-72
2022/08/24 11:00:11;;;;;;;3.40;1.33;;;34.80;51.60;;;;;;9179528;19;20025;-73
2022/08/24 11:03:30;;;;;;;5.28;1.48;;;34.90;51.40;;;;;;9180482;19;20335;-74
2022/08/24 11:06:38;;;;;;;2.88;1.30;;;35.00;51.10;;;;;;9180297;19;20007;-72
2022/08/24 11:09:50;;;;;;;5.90;1.30;;;35.10;51.00;;;;;;9180634;19;20026;-75
2022/08/24 11:12:55;;;;;;;2.90;1.40;;;35.10;50.70;;;;;;9179635;19;20014;-74
2022/08/24 11:16:02;;;;;;;3.05;1.40;;;35.20;50.70;;;;;;9179553;19;20133;-73
2022/08/24 11:19:14;;;;;;;5.45;1.65;;;35.20;50.40;;;;;;9181192;19;20637;-74
2022/08/24 11:22:39;;;;;;;4.05;1.60;;;35.20;50.20;;;;;;9186006;19;20041;-76
2022/08/24 11:26:06;;;;;;;6.88;1.67;;;35.20;49.90;;;;;;9186976;19;20111;-74
2022/08/24 11:29:11;;;;;;;1.80;1.08;;;35.30;50.20;;;;;;9184610;19;20496;-68
2022/08/24 11:32:28;;;;;;;2.85;1.58;;;35.30;50.00;;;;;;9189150;19;20010;-72
2022/08/24 11:35:40;;;;;;;2.67;1.30;;;35.20;49.40;;;;;;9187880;19;20018;-72
2022/08/24 11:38:46;;;;;;;1.95;1.40;;;35.30;49.40;;;;;;9188345;19;20030;-72
2022/08/24 11:41:58;;;;;;;2.20;1.27;;;35.30;49.60;;;;;;9185569;19;20010;-73
2022/08/24 11:45:09;;;;;;;3.25;1.15;;;35.40;49.30;;;;;;9186338;19;20011;-73
2022/08/24 11:48:35;;;;;;;4.70;1.10;;;35.50;49.30;;;;;;9187486;19;20023;-71
2022/08/24 11:51:53;;;;;;;2.38;1.40;;;35.50;48.70;;;;;;9187598;19;20088;-73
2022/08/24 11:55:05;;;;;;;1.52;1.10;;;35.60;48.70;;;;;;9187354;19;20018;-69
2022/08/24 11:58:17;;;;;;;1.77;1.23;;;35.80;48.70;;;;;;9188042;19;20019;-69
2022/08/24 12:01:27;;;;;;;1.73;1.10;;;35.80;48.50;;;;;;9185919;19;20022;-70
2022/08/24 12:04:46;;;;;;;4.13;1.17;;;35.90;48.20;;;;;;9186635;19;20015;-70
2022/08/24 12:08:05;;;;;;;6.70;1.00;;;36.00;48.60;;;;;;9187038;19;20365;-69
2022/08/24 12:11:17;;;;;;;1.80;1.08;;;36.00;47.60;;;;;;9186703;19;20018;-68
2022/08/24 12:14:29;;;;;;;2.65;0.90;;;36.10;47.60;;;;;;9186786;19;20499;-70
2022/08/24 12:17:39;;;;;;;4.32;1.70;;;36.20;47.50;;;;;;9186296;19;20026;-71
2022/08/24 12:20:47;;;;;;;1.98;0.90;;;36.30;47.30;;;;;;9181248;19;20365;-70
2022/08/24 12:24:01;;;;;;;3.15;1.42;;;36.30;47.10;;;;;;9186230;19;20462;-73
2022/08/24 12:27:11;;;;;;;5.50;1.38;;;36.30;46.80;;;;;;9180333;19;20015;-70
2022/08/24 12:30:18;;;;;;;2.63;1.20;;;36.40;46.80;;;;;;9184717;19;20010;-72
2022/08/24 12:33:30;;;;;;;2.80;1.02;;;36.40;46.60;;;;;;9185711;19;20046;-71
2022/08/24 12:36:48;;;;;;;2.97;1.10;;;36.40;46.40;;;;;;9186008;19;20007;-70
2022/08/24 12:40:04;;;;;;;1.40;0.90;;;36.30;46.20;;;;;;9184812;19;20467;-70
2022/08/24 12:43:13;;;;;;;2.00;1.10;;;36.40;46.20;;;;;;9182344;19;20017;-72
2022/08/24 12:46:24;;;;;;;9.45;1.20;;;36.40;46.30;;;;;;9185142;19;20025;-72
2022/08/24 12:49:35;;;;;;;1.95;1.40;;;36.40;46.10;;;;;;9184505;19;20018;-70
2022/08/24 12:53:17;;;;;;;4.15;1.02;;;36.40;46.00;;;;;;9186339;19;20022;-71
2022/08/24 12:56:42;;;;;;;3.67;0.95;;;36.40;45.70;;;;;;9183598;19;20027;-69
2022/08/24 12:59:51;;;;;;;4.60;1.08;;;36.50;45.80;;;;;;9184586;19;20025;-71
2022/08/24 13:03:00;;;;;;;3.92;1.05;;;36.50;45.90;;;;;;9181345;19;20022;-71
2022/08/24 13:06:08;;;;;;;4.15;1.10;;;36.60;45.80;;;;;;9184487;19;20026;-71
2022/08/24 13:09:27;;;;;;;3.58;0.95;;;36.60;45.50;;;;;;9184696;19;20014;-71
2022/08/24 13:13:09;;;;;;;3.25;1.05;;;36.60;45.20;;;;;;9184021;19;20018;-72
2022/08/24 13:16:55;;;;;;;3.95;1.20;;;36.60;44.80;;;;;;9181957;19;20495;-72
2022/08/24 13:20:20;;;;;;;1.50;0.90;;;36.60;44.70;;;;;;9182897;19;20491;-71
2022/08/24 13:23:28;;;;;;;7.35;1.02;;;36.60;44.60;;;;;;9180931;19;20021;-68
2022/08/24 13:26:34;;;;;;;3.45;1.00;;;36.60;44.80;;;;;;9179719;19;20017;-68
2022/08/24 13:29:45;;;;;;;1.27;0.93;;;36.50;44.60;;;;;;9183133;19;20010;-71
2022/08/24 13:33:00;;;;;;;1.13;0.90;;;36.50;44.50;;;;;;9183390;19;20023;-70
2022/08/24 13:36:46;;;;;;;2.00;1.10;;;36.50;44.50;;;;;;9183295;19;20029;-71
2022/08/24 13:40:15;;;;;;;7.57;1.25;;;36.50;44.50;;;;;;9181763;19;20387;-72
2022/08/24 13:43:29;;;;;;;1.73;0.90;;;36.50;44.60;;;;;;9177891;19;20011;-72
2022/08/24 13:46:50;;;;;;;3.63;1.15;;;36.50;44.60;;;;;;9180794;19;20015;-71
2022/08/24 13:50:07;;;;;;;3.03;1.08;;;36.40;44.30;;;;;;9182096;19;20396;-74
2022/08/24 13:53:34;;;;;;;2.30;1.20;;;36.30;44.40;;;;;;9183025;19;20019;-71
2022/08/24 13:56:49;;;;;;;8.70;1.08;;;36.30;44.20;;;;;;9182692;19;20496;-71
2022/08/24 14:00:11;;;;;;;6.00;1.45;;;36.20;44.20;;;;;;9182499;19;20048;-72
2022/08/24 14:03:45;;;;;;;2.50;0.93;;;36.10;44.30;;;;;;9180018;19;20014;-68
2022/08/24 14:06:57;;;;;;;2.40;1.27;;;36.10;44.20;;;;;;9181585;19;20007;-73
2022/08/24 14:10:14;;;;;;;3.53;1.13;;;36.10;44.40;;;;;;9181961;19;20010;-70
2022/08/24 14:13:34;;;;;;;1.45;1.10;;;36.00;44.30;;;;;;9179788;19;20022;-71
2022/08/24 14:20:16;;;;;;;2.20;1.02;;;35.90;44.30;;;;;;9182194;19;20022;-70
2022/08/24 14:23:34;;;;;;;1.65;1.10;;;35.90;44.20;;;;;;9179939;19;20007;-69
2022/08/24 14:27:06;;;;;;;3.28;1.05;;;35.90;44.20;;;;;;9177320;19;20391;-71
2022/08/24 14:30:44;;;;;;;4.90;1.67;;;35.80;44.00;;;;;;9180556;19;20017;-70
2022/08/24 14:33:59;;;;;;;2.85;1.00;;;35.70;43.90;;;;;;9181226;19;20533;-70
2022/08/24 14:37:20;;;;;;;4.13;1.30;;;35.60;44.10;;;;;;9180867;19;20018;-71
2022/08/24 14:40:33;;;;;;;1.20;1.00;;;35.50;44.00;;;;;;9179413;19;20022;-70
2022/08/24 14:44:05;;;;;;;2.25;1.40;;;35.40;44.00;;;;;;9178389;19;20536;-69
2022/08/24 14:47:22;;;;;;;6.20;1.05;;;35.30;43.90;;;;;;9173553;19;20021;-68
2022/08/24 14:50:34;;;;;;;2.15;1.40;;;35.20;44.10;;;;;;9167887;19;20022;-70
2022/08/24 14:53:57;;;;;;;3.83;1.33;;;35.00;44.10;;;;;;9166876;19;20266;-70
2022/08/24 14:57:22;;;;;;;1.40;1.10;;;34.80;44.10;;;;;;9165148;19;20018;-71
2022/08/24 15:00:35;;;;;;;2.10;1.05;;;34.70;44.30;;;;;;9164850;19;20026;-69
2022/08/24 15:03:56;;;;;;;6.90;1.20;;;34.50;44.40;;;;;;9166734;19;20018;-70
2022/08/24 15:07:26;;;;;;;9.40;2.10;;;34.40;44.40;;;;;;9167492;19;20018;-70
2022/08/24 15:10:39;;;;;;;7.25;1.85;;;34.30;44.50;;;;;;9167711;19;20491;-72
2022/08/24 15:13:50;;;;;;;3.75;1.50;;;34.10;44.50;;;;;;9167794;19;20011;-71
2022/08/24 15:17:06;;;;;;;3.15;1.70;;;34.00;44.60;;;;;;9168228;19;20015;-72
2022/08/24 15:20:20;;;;;;;6.60;2.30;;;33.90;44.70;;;;;;9168231;19;20018;-70
2022/08/24 15:23:29;;;;;;;;;;;33.80;44.80;;;;;;9164966;19;20820;-70
2022/08/24 15:26:48;;;;;;;5.10;2.00;;;33.70;45.00;;;;;;9163464;19;19927;-69
2022/08/24 15:29:56;;;;;;;4.07;1.85;;;33.60;44.90;;;;;;9167769;19;20015;-70
2022/08/24 15:33:09;;;;;;;3.58;1.60;;;33.50;45.00;;;;;;9166911;19;20014;-71
2022/08/24 15:36:17;;;;;;;11.38;1.70;;;33.50;45.10;;;;;;9154093;19;20029;-70
2022/08/24 15:39:28;;;;;;;3.20;1.50;;;33.40;45.10;;;;;;9161240;19;20373;-72
2022/08/24 15:42:38;;;;;;;6.50;1.42;;;33.30;45.10;;;;;;9151967;19;20018;-70
2022/08/24 15:45:48;;;;;;;3.65;1.13;;;33.30;45.00;;;;;;9163088;19;20019;-72
2022/08/24 15:49:00;;;;;;;3.38;1.70;;;33.30;45.10;;;;;;9162148;19;20082;-69
2022/08/24 15:52:08;;;;;;;5.13;1.35;;;33.30;45.10;;;;;;9162670;19;20881;-69
2022/08/24 15:55:29;;;;;;;5.03;1.45;;;33.30;45.10;;;;;;9160852;19;20056;-69
2022/08/24 15:58:38;;;;;;;3.95;1.50;;;33.30;45.10;;;;;;9160653;19;20010;-72
2022/08/24 16:05:12;;;;;;;1.95;1.40;;;33.20;45.10;;;;;;9161452;19;20085;-70
2022/08/24 16:08:18;;;;;;;2.63;1.60;;;33.10;45.10;;;;;;9170960;19;20634;-72
2022/08/24 16:11:30;;;;;;;5.15;1.52;;;33.10;45.20;;;;;;9168711;19;20019;-68
2022/08/24 16:14:41;;;;;;;2.65;1.17;;;33.00;45.20;;;;;;9167580;19;20011;-69
2022/08/24 16:17:58;;;;;;;4.45;1.17;;;32.90;45.20;;;;;;9169931;19;20018;-69
2022/08/24 16:21:15;;;;;;;2.50;1.27;;;32.90;45.30;;;;;;9174490;19;20022;-68
2022/08/24 16:24:32;;;;;;;3.78;1.52;;;32.80;45.30;;;;;;9164981;19;20022;-70
2022/08/24 16:28:04;;;;;;;6.20;1.70;;;32.70;45.50;;;;;;9167505;19;20025;-70
2022/08/24 16:31:50;;;;;;;4.00;1.25;;;32.60;45.50;;;;;;9174982;19;20540;-70
2022/08/24 16:34:57;;;;;;;2.60;1.30;;;32.60;45.60;;;;;;9171817;19;20364;-69
2022/08/24 16:38:02;;;;;;;1.38;1.10;;;32.50;45.80;;;;;;9172496;19;20065;-69
2022/08/24 16:41:11;;;;;;;3.28;1.20;;;32.40;45.90;;;;;;9171979;19;20025;-70
2022/08/24 16:44:16;;;;;;;6.20;1.38;;;32.40;45.90;;;;;;9170144;19;20019;-70